Time;durP1;ratioP1;P1;durP2;ratioP2;P2;SDS_P1;SDS_P2;PMS_P1;PMS_P2;Temp;Humidity;BMP_temperature;BMP_pressure;BME280_temperature;BME280_humidity;BME280_pressure;Samples;Min_cycle;Max_cycle;Signal;HPM_P1;HPM_P2
2022/03/07 00:02:03;;;;;;;5.22;4.22;;;;;;;-0.91;65.45;102624.00;5099846;28;20038;-82
2022/03/07 00:04:29;;;;;;;7.93;4.50;;;;;;;-0.94;64.58;102616.19;5099995;28;20092;-82
2022/03/07 00:06:54;;;;;;;5.95;4.30;;;;;;;-0.95;66.35;102616.28;5099659;28;20028;-82
2022/03/07 00:09:20;;;;;;;6.20;4.07;;;;;;;-0.96;63.75;102615.44;5118086;28;20386;-83
2022/03/07 00:11:46;;;;;;;6.97;4.72;;;;;;;-0.95;65.30;102616.28;5116700;28;20037;-82
2022/03/07 00:14:12;;;;;;;7.53;5.07;;;;;;;-0.95;65.55;102610.97;5116557;28;20028;-82
2022/03/07 00:16:37;;;;;;;6.55;5.05;;;;;;;-0.96;66.28;102610.13;5116289;28;20038;-82
2022/03/07 00:19:06;;;;;;;6.88;5.30;;;;;;;-0.93;64.27;102620.59;5099597;28;20127;-82
2022/03/07 00:21:32;;;;;;;6.20;5.00;;;;;;;-0.94;63.61;102604.69;5116474;28;20027;-83
2022/03/07 00:23:57;;;;;;;5.88;4.82;;;;;;;-0.96;65.52;102614.56;5115708;28;20051;-82
2022/03/07 00:26:23;;;;;;;8.05;5.15;;;;;;;-0.99;65.74;102604.97;5116952;28;20063;-82
2022/03/07 00:28:48;;;;;;;7.03;5.32;;;;;;;-1.03;66.98;102602.59;5116697;28;20524;-82
2022/03/07 00:31:15;;;;;;;6.50;5.10;;;;;;;-1.07;65.76;102610.78;5116309;28;20507;-82
2022/03/07 00:33:41;;;;;;;6.40;4.78;;;;;;;-1.12;67.29;102614.66;5117147;28;20035;-82
2022/03/07 00:36:07;;;;;;;5.22;4.40;;;;;;;-1.17;66.90;102619.44;5115955;28;20035;-82
2022/03/07 00:38:34;;;;;;;6.18;4.50;;;;;;;-1.20;67.39;102623.13;5116101;28;20023;-82
2022/03/07 00:41:00;;;;;;;5.88;5.00;;;;;;;-1.22;68.07;102625.06;5099008;28;20405;-82
2022/03/07 00:43:25;;;;;;;6.60;4.65;;;;;;;-1.27;67.40;102622.69;5115823;28;20024;-82
2022/03/07 00:45:51;;;;;;;5.22;4.55;;;;;;;-1.30;66.96;102619.34;5116247;28;20455;-82
2022/03/07 00:48:18;;;;;;;4.80;4.38;;;;;;;-1.35;67.91;102621.44;5116306;28;20032;-83
2022/03/07 00:50:45;;;;;;;6.60;4.20;;;;;;;-1.39;67.37;102620.75;5116302;28;20032;-83
2022/03/07 00:53:12;;;;;;;7.15;4.78;;;;;;;-1.41;67.27;102625.31;5098892;28;20043;-82
2022/03/07 00:55:39;;;;;;;5.63;4.95;;;;;;;-1.44;68.09;102623.69;5099235;28;20050;-82
2022/03/07 00:58:05;;;;;;;5.38;4.60;;;;;;;-1.46;67.63;102622.06;5098832;28;20101;-82
2022/03/07 01:00:32;;;;;;;5.38;4.60;;;;;;;-1.48;68.11;102629.31;5116019;28;20042;-82
2022/03/07 01:02:58;;;;;;;6.28;4.70;;;;;;;-1.50;67.76;102626.72;5115969;28;20031;-82
2022/03/07 01:05:23;;;;;;;7.72;5.28;;;;;;;-1.51;67.80;102622.34;5115334;28;20031;-82
2022/03/07 01:07:49;;;;;;;6.22;4.72;;;;;;;-1.53;67.92;102632.25;5114461;28;20392;-83
2022/03/07 01:10:14;;;;;;;5.97;5.30;;;;;;;-1.51;67.37;102632.16;5115116;28;20115;-82
2022/03/07 01:12:41;;;;;;;7.97;5.60;;;;;;;-1.53;67.48;102629.59;5081354;28;20059;-82
2022/03/07 01:15:07;;;;;;;6.05;5.13;;;;;;;-1.54;68.35;102635.00;5081416;28;20117;-82
2022/03/07 01:17:34;;;;;;;6.80;5.20;;;;;;;-1.56;68.29;102637.75;5115393;28;20096;-82
2022/03/07 01:19:59;;;;;;;5.85;5.05;;;;;;;-1.57;67.75;102632.53;5115636;28;20043;-82
2022/03/07 01:22:25;;;;;;;7.28;5.55;;;;;;;-1.59;68.14;102630.81;5115323;28;20028;-82
2022/03/07 01:24:50;;;;;;;6.05;4.95;;;;;;;-1.61;67.39;102624.72;5114897;28;20142;-82
2022/03/07 01:27:16;;;;;;;7.63;5.28;;;;;;;-1.61;67.84;102631.84;5114752;28;20031;-82
2022/03/07 01:29:42;;;;;;;6.60;5.28;;;;;;;-1.62;68.40;102624.81;5097913;28;20464;-82
2022/03/07 01:32:08;;;;;;;6.53;5.10;;;;;;;-1.65;68.35;102631.19;5081315;28;20387;-83
2022/03/07 01:34:33;;;;;;;6.78;4.90;;;;;;;-1.66;68.36;102626.78;5098348;28;20118;-82
2022/03/07 01:36:59;;;;;;;6.88;4.75;;;;;;;-1.71;70.05;102623.56;5097663;28;20483;-82
2022/03/07 01:39:27;;;;;;;5.70;5.10;;;;;;;-1.74;69.04;102620.22;5114677;28;20099;-82
2022/03/07 01:41:52;;;;;;;7.72;5.40;;;;;;;-1.77;69.54;102626.59;5081398;28;20031;-82
2022/03/07 01:44:27;;;;;;;6.47;5.35;;;;;;;-1.79;67.57;102620.50;5114913;28;20024;-82
2022/03/07 01:46:53;;;;;;;6.65;5.20;;;;;;;-1.82;68.33;102621.53;5114876;28;20055;-82
2022/03/07 01:49:19;;;;;;;5.43;4.80;;;;;;;-1.83;69.09;102619.81;5114538;28;20032;-82
2022/03/07 01:51:48;;;;;;;7.22;5.13;;;;;;;-1.85;68.88;102628.84;5114420;28;20038;-82
2022/03/07 01:54:16;;;;;;;7.35;5.82;;;;;;;-1.88;68.59;102627.22;5116140;27;20076;-82
2022/03/07 01:56:45;;;;;;;7.63;5.50;;;;;;;-1.89;68.85;102621.97;5114472;28;20116;-82
2022/03/07 01:59:14;;;;;;;6.85;5.25;;;;;;;-1.92;68.38;102620.34;5114574;28;20039;-82
2022/03/07 02:01:40;;;;;;;8.00;5.57;;;;;;;-1.95;69.58;102620.53;5114504;28;20467;-82
2022/03/07 02:04:06;;;;;;;6.88;5.10;;;;;;;-1.97;69.04;102620.63;5115001;28;20028;-82
2022/03/07 02:06:32;;;;;;;6.30;5.00;;;;;;;-1.99;68.89;102611.88;5114475;28;20122;-82
2022/03/07 02:08:58;;;;;;;8.55;5.90;;;;;;;-1.99;70.66;102616.38;5115627;28;20106;-82
2022/03/07 02:11:26;;;;;;;5.80;5.20;;;;;;;-2.00;68.85;102612.81;5115621;28;20519;-82
2022/03/07 02:13:53;;;;;;;8.80;5.70;;;;;;;-2.03;70.27;102610.34;5115810;28;20059;-82
2022/03/07 02:16:20;;;;;;;7.07;5.38;;;;;;;-2.03;69.10;102612.16;5113709;28;20028;-82
2022/03/07 02:18:48;;;;;;;8.98;6.07;;;;;;;-2.05;69.68;102617.56;5115570;28;20028;-82
2022/03/07 02:21:18;;;;;;;7.88;5.60;;;;;;;-2.07;69.38;102619.44;5080016;28;20023;-82
2022/03/07 02:23:44;;;;;;;6.45;5.38;;;;;;;-2.08;69.86;102608.91;5114103;28;20040;-82
2022/03/07 02:26:11;;;;;;;7.07;5.45;;;;;;;-2.13;69.83;102607.38;5114991;28;20196;-82
2022/03/07 02:28:39;;;;;;;7.60;5.60;;;;;;;-2.15;70.23;102603.94;5081201;28;20031;-82
2022/03/07 02:31:05;;;;;;;7.55;5.70;;;;;;;-2.19;70.65;102605.06;5113945;28;20099;-82
2022/03/07 02:33:34;;;;;;;7.65;5.25;;;;;;;-2.20;71.13;102600.69;5096587;28;20084;-82
2022/03/07 02:36:00;;;;;;;7.55;5.68;;;;;;;-2.21;70.71;102603.44;5113909;28;20036;-81
2022/03/07 02:38:25;;;;;;;7.32;5.07;;;;;;;-2.25;70.66;102596.59;5096583;28;20039;-82
2022/03/07 02:40:51;;;;;;;6.72;5.05;;;;;;;-2.27;71.11;102603.78;5097063;28;20039;-82
2022/03/07 02:43:17;;;;;;;8.63;5.97;;;;;;;-2.28;71.13;102605.59;5114739;28;20491;-82
2022/03/07 02:45:43;;;;;;;7.80;5.63;;;;;;;-2.28;71.36;102604.75;5113751;28;20039;-82
2022/03/07 02:48:09;;;;;;;6.80;5.50;;;;;;;-2.28;71.33;102605.59;5113740;28;20160;-82
2022/03/07 02:50:34;;;;;;;6.05;5.43;;;;;;;-2.30;71.67;102600.38;5113323;28;20127;-82
2022/03/07 02:53:00;;;;;;;6.95;5.65;;;;;;;-2.29;72.43;102606.53;5096489;28;20039;-82
2022/03/07 02:55:25;;;;;;;7.32;5.80;;;;;;;-2.28;71.31;102602.09;5096234;28;20104;-82
2022/03/07 02:57:51;;;;;;;8.15;6.00;;;;;;;-2.30;71.47;102602.19;5096828;28;20455;-82
2022/03/07 03:00:17;;;;;;;8.20;5.90;;;;;;;-2.31;71.67;102598.63;5113223;28;20441;-82
2022/03/07 03:02:42;;;;;;;7.25;6.18;;;;;;;-2.30;71.17;102596.84;5114384;28;20476;-80
2022/03/07 03:05:08;;;;;;;7.57;6.28;;;;;;;-2.29;71.58;102601.22;5114346;28;20035;-82
2022/03/07 03:07:34;;;;;;;6.97;5.88;;;;;;;-2.32;71.59;102590.75;5113466;28;20383;-82
2022/03/07 03:10:00;;;;;;;9.35;6.32;;;;;;;-2.33;72.19;102600.53;5079512;28;20042;-82
2022/03/07 03:12:26;;;;;;;7.93;6.30;;;;;;;-2.36;71.53;102600.72;5114846;28;20028;-81
2022/03/07 03:14:53;;;;;;;9.55;6.78;;;;;;;-2.37;71.65;102591.03;5080004;28;20126;-82
2022/03/07 03:17:18;;;;;;;10.95;6.63;;;;;;;-2.36;71.78;102594.53;5113921;28;20030;-82
2022/03/07 03:19:47;;;;;;;9.63;6.60;;;;;;;-2.38;71.38;102596.44;5080173;28;20043;-82
2022/03/07 03:22:12;;;;;;;7.43;6.10;;;;;;;-2.39;72.69;102597.38;5079733;28;20470;-82
2022/03/07 03:24:38;;;;;;;7.30;6.10;;;;;;;-2.41;70.99;102600.09;5112703;28;20059;-82
2022/03/07 03:27:07;;;;;;;8.02;6.45;;;;;;;-2.41;72.16;102610.75;5095830;28;20031;-82
2022/03/07 03:29:33;;;;;;;7.40;5.88;;;;;;;-2.45;73.46;102603.91;5096648;28;20038;-82
2022/03/07 03:31:58;;;;;;;6.95;5.85;;;;;;;-2.46;73.01;102599.53;5095849;28;20036;-82
2022/03/07 03:34:25;;;;;;;6.20;5.40;;;;;;;-2.50;73.26;102603.31;5112906;28;20085;-83
2022/03/07 03:36:51;;;;;;;7.40;5.70;;;;;;;-2.52;73.20;102606.03;5112975;28;20031;-86
2022/03/07 03:39:17;;;;;;;6.10;5.50;;;;;;;-2.54;73.23;102605.28;5096046;28;20502;-81
2022/03/07 03:41:42;;;;;;;8.70;6.05;;;;;;;-2.56;72.55;102598.34;5112583;28;20027;-83
2022/03/07 03:44:08;;;;;;;8.20;5.80;;;;;;;-2.58;73.71;102605.53;5112920;28;20042;-82
2022/03/07 03:46:40;;;;;;;6.90;5.28;;;;;;;-2.60;73.40;102607.41;5095541;28;20126;-83
2022/03/07 03:49:05;;;;;;;6.63;5.68;;;;;;;-2.61;73.10;102616.31;5112611;28;20023;-83
2022/03/07 03:51:31;;;;;;;8.35;5.88;;;;;;;-2.61;73.39;102609.22;5112858;28;20042;-82
2022/03/07 03:54:00;;;;;;;6.78;5.35;;;;;;;-2.63;73.22;102613.75;5112763;28;20031;-83
2022/03/07 03:56:26;;;;;;;8.73;6.18;;;;;;;-2.66;72.67;102609.50;5096285;28;20052;-83
2022/03/07 03:58:51;;;;;;;7.13;6.20;;;;;;;-2.67;73.86;102612.25;5113124;28;20066;-83
2022/03/07 04:01:16;;;;;;;8.15;6.47;;;;;;;-2.67;72.95;102615.75;5078994;28;20475;-83
2022/03/07 04:03:45;;;;;;;8.48;6.32;;;;;;;-2.68;72.89;102614.00;5113272;28;20439;-83
2022/03/07 04:06:10;;;;;;;8.77;6.68;;;;;;;-2.66;73.56;102619.25;5112142;28;20074;-83
2022/03/07 04:08:37;;;;;;;7.65;6.63;;;;;;;-2.67;74.86;102618.41;5112586;28;20061;-84
2022/03/07 04:11:02;;;;;;;9.55;7.15;;;;;;;-2.69;73.20;102619.41;5112661;28;20031;-83
2022/03/07 04:13:28;;;;;;;8.77;7.20;;;;;;;-2.70;74.12;102621.22;5095479;28;20028;-83
2022/03/07 04:15:53;;;;;;;8.73;7.15;;;;;;;-2.68;71.91;102618.47;5112910;28;20035;-83
2022/03/07 04:18:19;;;;;;;10.65;7.90;;;;;;;-2.69;75.13;102617.63;5095309;28;20024;-82
2022/03/07 04:20:44;;;;;;;9.63;7.63;;;;;;;-2.70;74.64;102618.56;5113137;28;20364;-83
2022/03/07 04:23:10;;;;;;;10.13;7.43;;;;;;;-2.71;75.06;102616.00;5096067;28;20395;-83
2022/03/07 04:25:35;;;;;;;10.32;7.05;;;;;;;-2.73;74.39;102618.75;5112854;28;20052;-83
2022/03/07 04:28:01;;;;;;;9.35;6.85;;;;;;;-2.74;75.00;102609.03;5095233;28;20503;-83
2022/03/07 04:30:26;;;;;;;7.72;6.47;;;;;;;-2.77;74.35;102611.03;5112222;28;20019;-83
2022/03/07 04:32:52;;;;;;;9.50;6.57;;;;;;;-2.82;74.63;102617.44;5113379;28;20030;-83
2022/03/07 04:35:18;;;;;;;7.25;6.35;;;;;;;-2.83;74.64;102609.56;5095101;28;20028;-83
2022/03/07 04:37:43;;;;;;;8.95;6.90;;;;;;;-2.82;74.93;102609.47;5112483;28;20028;-83
2022/03/07 04:40:18;;;;;;;8.60;6.60;;;;;;;-2.80;72.32;102600.53;5095979;28;20031;-83
2022/03/07 04:42:44;;;;;;;9.45;7.38;;;;;;;-2.82;74.59;102605.94;5095893;28;20066;-83
2022/03/07 04:45:12;;;;;;;10.30;7.82;;;;;;;-2.83;73.65;102610.41;5115739;28;20063;-83
2022/03/07 04:47:38;;;;;;;9.60;7.90;;;;;;;-2.82;72.42;102611.25;5098721;28;20043;-83
2022/03/07 04:50:06;;;;;;;9.40;7.43;;;;;;;-2.86;75.87;102610.59;5115673;28;20020;-83
2022/03/07 04:52:32;;;;;;;9.10;7.03;;;;;;;-2.89;75.81;102612.56;5116232;28;20027;-83
2022/03/07 04:54:57;;;;;;;9.15;7.00;;;;;;;-2.92;76.52;102607.38;5116831;28;20027;-83
2022/03/07 04:57:23;;;;;;;9.48;6.78;;;;;;;-2.95;75.37;102611.09;5098811;28;20482;-83
2022/03/07 04:59:48;;;;;;;8.73;6.63;;;;;;;-2.95;76.48;102607.56;5098486;28;20039;-83
2022/03/07 05:02:14;;;;;;;8.32;6.28;;;;;;;-2.96;75.98;102606.72;5115820;28;20031;-83
2022/03/07 05:04:41;;;;;;;6.80;6.10;;;;;;;-2.96;75.05;102611.19;5115730;28;20439;-84
2022/03/07 05:07:06;;;;;;;7.47;6.40;;;;;;;-2.98;76.32;102610.38;5115324;28;20122;-84
2022/03/07 05:09:32;;;;;;;8.68;6.90;;;;;;;-3.02;75.70;102605.25;5098317;28;20059;-83
2022/03/07 05:11:58;;;;;;;7.25;6.13;;;;;;;-3.03;75.08;102608.00;5115622;28;20471;-83
2022/03/07 05:14:24;;;;;;;7.65;6.38;;;;;;;-3.05;76.08;102605.41;5116702;28;20027;-83
2022/03/07 05:16:50;;;;;;;7.35;6.43;;;;;;;-3.07;76.16;102602.00;5098453;28;20032;-84
2022/03/07 05:19:15;;;;;;;8.63;6.88;;;;;;;-3.09;75.63;102603.00;5115412;28;20114;-84
2022/03/07 05:21:41;;;;;;;9.35;7.07;;;;;;;-3.08;74.17;102602.94;5081474;28;20041;-84
2022/03/07 05:24:06;;;;;;;10.82;7.57;;;;;;;-3.04;74.49;102603.59;5114757;28;20060;-84
2022/03/07 05:26:32;;;;;;;7.68;6.88;;;;;;;-3.06;75.46;102600.19;5098565;28;20058;-83
2022/03/07 05:28:57;;;;;;;10.27;7.70;;;;;;;-3.07;75.13;102602.00;5098162;28;20031;-84
2022/03/07 05:31:23;;;;;;;10.63;7.10;;;;;;;-3.08;76.86;102605.59;5097713;28;20032;-83
2022/03/07 05:33:48;;;;;;;7.95;6.65;;;;;;;-3.11;76.35;102603.09;5081418;28;20031;-83
2022/03/07 05:36:14;;;;;;;8.88;6.40;;;;;;;-3.13;76.41;102607.66;5114886;28;20047;-84
2022/03/07 05:38:39;;;;;;;9.60;6.82;;;;;;;-3.16;75.95;102610.44;5114946;28;20185;-83
2022/03/07 05:41:05;;;;;;;6.90;6.10;;;;;;;-3.18;77.28;102615.00;5098465;28;20038;-84
2022/03/07 05:43:31;;;;;;;7.05;6.35;;;;;;;-3.19;76.75;102613.25;5115068;28;20383;-83
2022/03/07 05:45:56;;;;;;;7.85;6.57;;;;;;;-3.21;76.50;102613.34;5115200;28;20065;-84
2022/03/07 05:48:22;;;;;;;8.68;6.85;;;;;;;-3.22;76.43;102616.09;5080561;28;20390;-84
2022/03/07 05:50:47;;;;;;;8.50;7.00;;;;;;;-3.24;76.25;102621.47;5114548;28;20028;-84
2022/03/07 05:53:13;;;;;;;9.65;7.28;;;;;;;-3.25;76.99;102621.56;5097423;28;20497;-84
2022/03/07 05:55:38;;;;;;;9.35;6.63;;;;;;;-3.24;76.00;102613.50;5114429;28;20387;-83
2022/03/07 05:58:04;;;;;;;10.32;7.70;;;;;;;-3.22;76.45;102616.97;5097667;28;20031;-83
2022/03/07 06:00:30;;;;;;;9.02;7.60;;;;;;;-3.20;76.37;102619.53;5114575;28;20055;-83
2022/03/07 06:02:55;;;;;;;10.50;7.85;;;;;;;-3.21;76.22;102616.00;5114818;28;20028;-84
2022/03/07 06:05:22;;;;;;;9.50;8.00;;;;;;;-3.23;76.42;102617.88;5114802;28;20122;-84
2022/03/07 06:07:47;;;;;;;10.95;7.72;;;;;;;-3.23;77.76;102627.66;5114604;28;20027;-84
2022/03/07 06:10:13;;;;;;;9.07;7.18;;;;;;;-3.26;77.05;102625.13;5114373;28;20096;-84
2022/03/07 06:12:38;;;;;;;8.25;7.10;;;;;;;-3.27;78.29;102624.28;5097382;28;20032;-82
2022/03/07 06:15:05;;;;;;;8.50;6.93;;;;;;;-3.30;78.63;102637.75;5096989;28;20035;-82
2022/03/07 06:17:31;;;;;;;10.40;8.48;;;;;;;-3.31;79.07;102643.97;5080452;28;20027;-81
2022/03/07 06:19:57;;;;;;;8.80;7.25;;;;;;;-3.31;77.85;102643.13;5097090;28;20092;-82
2022/03/07 06:22:23;;;;;;;8.68;7.53;;;;;;;-3.32;77.53;102644.94;5097165;28;20035;-82
2022/03/07 06:24:49;;;;;;;10.40;8.05;;;;;;;-3.31;77.37;102641.31;5096826;28;20047;-88
2022/03/07 06:27:14;;;;;;;10.68;7.47;;;;;;;-3.28;77.35;102645.63;5080343;28;20031;-87
2022/03/07 06:29:40;;;;;;;10.05;7.43;;;;;;;-3.25;77.39;102646.34;5097163;28;20035;-89
2022/03/07 06:32:09;;;;;;;9.45;7.32;;;;;;;-3.22;76.93;102648.81;5114210;28;20028;-87
2022/03/07 06:34:35;;;;;;;10.68;7.75;;;;;;;-3.18;76.75;102655.66;5115490;28;20027;-89
2022/03/07 06:37:01;;;;;;;9.23;7.43;;;;;;;-3.14;76.81;102661.69;5113562;28;20096;-88
2022/03/07 06:39:27;;;;;;;9.98;7.55;;;;;;;-3.11;76.96;102658.88;5114318;28;20039;-84
2022/03/07 06:41:56;;;;;;;9.15;7.82;;;;;;;-3.05;77.11;102655.03;5113647;28;20023;-83
2022/03/07 06:44:22;;;;;;;12.25;8.70;;;;;;;-2.98;79.30;102663.50;5113422;28;20536;-83
2022/03/07 06:46:48;;;;;;;11.07;9.25;;;;;;;-2.94;77.29;102655.28;5113239;28;20027;-83
2022/03/07 06:49:13;;;;;;;11.93;8.82;;;;;;;-2.90;76.10;102658.66;5096375;28;20032;-83
2022/03/07 06:51:39;;;;;;;10.38;8.70;;;;;;;-2.87;77.04;102658.50;5112948;28;20030;-82
2022/03/07 06:54:05;;;;;;;11.82;9.00;;;;;;;-2.82;76.09;102662.63;5096603;28;20031;-81
2022/03/07 06:56:30;;;;;;;11.55;8.60;;;;;;;-2.77;76.11;102666.81;5113222;28;20603;-83
2022/03/07 06:58:56;;;;;;;11.57;8.57;;;;;;;-2.73;76.12;102668.34;5114367;28;20023;-82
2022/03/07 07:01:22;;;;;;;11.23;8.23;;;;;;;-2.71;77.26;102671.81;5113212;28;20032;-82
2022/03/07 07:03:48;;;;;;;11.40;8.10;;;;;;;-2.68;76.67;102669.81;5113047;28;20027;-84
2022/03/07 07:06:14;;;;;;;9.57;8.18;;;;;;;-2.60;77.19;102669.38;5112706;28;20030;-83
2022/03/07 07:08:40;;;;;;;12.38;9.23;;;;;;;-2.56;77.69;102672.75;5095979;28;20036;-84
2022/03/07 07:11:05;;;;;;;10.48;8.75;;;;;;;-2.51;77.81;102670.69;5112643;28;20020;-84
2022/03/07 07:13:31;;;;;;;10.23;8.70;;;;;;;-2.44;77.35;102674.72;5095662;28;20040;-84
2022/03/07 07:15:57;;;;;;;11.68;9.18;;;;;;;-2.39;76.92;102670.03;5114277;28;20031;-84
2022/03/07 07:18:26;;;;;;;10.57;8.15;;;;;;;-2.32;76.52;102673.19;5112482;28;20395;-83
2022/03/07 07:21:00;;;;;;;11.00;9.10;;;;;;;-2.27;75.84;102671.13;5095638;28;20039;-84
2022/03/07 07:23:26;;;;;;;11.85;8.68;;;;;;;-2.21;76.07;102672.59;5095213;28;20074;-84
2022/03/07 07:25:55;;;;;;;11.15;9.07;;;;;;;-2.14;74.97;102663.28;5096316;28;20044;-84
2022/03/07 07:28:21;;;;;;;12.57;9.88;;;;;;;-2.08;75.30;102662.09;5113314;28;20044;-84
2022/03/07 07:30:47;;;;;;;14.48;9.90;;;;;;;-2.02;75.87;102665.28;5112549;28;20027;-83
2022/03/07 07:33:17;;;;;;;12.85;9.05;;;;;;;-1.97;74.52;102657.88;5095573;28;20030;-84
2022/03/07 07:35:42;;;;;;;12.52;9.45;;;;;;;-1.88;74.55;102659.13;5112908;28;20035;-84
2022/03/07 07:38:08;;;;;;;11.57;9.13;;;;;;;-1.82;74.58;102666.75;5112688;28;20379;-84
2022/03/07 07:40:33;;;;;;;9.68;8.00;;;;;;;-1.78;75.70;102662.97;5112272;28;20030;-83
2022/03/07 07:42:59;;;;;;;10.45;7.95;;;;;;;-1.72;75.46;102668.91;5112168;28;20455;-83
2022/03/07 07:45:25;;;;;;;10.45;8.32;;;;;;;-1.65;75.03;102670.25;5112079;28;20058;-83
2022/03/07 07:47:51;;;;;;;10.75;8.30;;;;;;;-1.60;74.85;102671.66;5113909;28;20035;-83
2022/03/07 07:50:16;;;;;;;10.88;7.25;;;;;;;-1.54;75.02;102673.13;5113555;28;20114;-84
2022/03/07 07:52:42;;;;;;;9.00;7.38;;;;;;;-1.46;74.53;102673.53;5095124;28;20452;-82
2022/03/07 07:55:08;;;;;;;8.23;7.43;;;;;;;-1.39;74.48;102682.00;5077132;28;20039;-82
2022/03/07 07:57:34;;;;;;;8.55;6.90;;;;;;;-1.30;74.14;102680.59;5095336;28;20375;-82
2022/03/07 08:00:00;;;;;;;10.00;8.02;;;;;;;-1.21;73.48;102679.19;5095290;28;20047;-82
2022/03/07 08:02:25;;;;;;;9.45;7.40;;;;;;;-1.15;73.27;102677.00;5078846;28;20024;-82
2022/03/07 08:04:54;;;;;;;8.80;7.30;;;;;;;-1.08;73.57;102674.81;5078765;28;20032;-82
2022/03/07 08:07:19;;;;;;;7.82;7.03;;;;;;;-0.98;72.74;102678.63;5112171;28;20043;-82
2022/03/07 08:09:45;;;;;;;9.48;7.60;;;;;;;-0.89;72.03;102675.41;5079824;28;20035;-82
2022/03/07 08:12:11;;;;;;;8.85;7.50;;;;;;;-0.79;72.09;102677.50;5078965;28;20471;-82
2022/03/07 08:14:37;;;;;;;12.43;8.73;;;;;;;-0.70;71.92;102668.91;5112470;28;20118;-81
2022/03/07 08:17:05;;;;;;;8.75;7.50;;;;;;;-0.60;71.50;102678.03;5096684;28;20032;-82
2022/03/07 08:19:31;;;;;;;11.57;8.43;;;;;;;-0.49;71.14;102679.16;5117168;28;20053;-81
2022/03/07 08:21:56;;;;;;;10.27;8.25;;;;;;;-0.39;69.59;102681.13;5099521;28;20471;-82
2022/03/07 08:24:23;;;;;;;9.32;7.63;;;;;;;-0.27;69.78;102670.63;5098830;28;20063;-81
2022/03/07 08:26:48;;;;;;;11.02;7.80;;;;;;;-0.19;69.45;102677.19;5083473;28;20043;-81
2022/03/07 08:29:14;;;;;;;11.65;8.18;;;;;;;-0.09;68.97;102673.91;5116124;28;20059;-81
2022/03/07 08:31:39;;;;;;;11.88;7.57;;;;;;;-0.01;68.60;102680.47;5115856;28;20028;-81
2022/03/07 08:34:05;;;;;;;9.68;7.53;;;;;;;0.10;68.20;102681.56;5117898;28;20034;-81
2022/03/07 08:36:32;;;;;;;11.80;8.10;;;;;;;0.20;67.85;102680.00;5099026;28;20538;-81
2022/03/07 08:38:58;;;;;;;11.57;8.10;;;;;;;0.28;67.92;102680.34;5099199;28;20089;-80
2022/03/07 08:41:24;;;;;;;10.70;8.23;;;;;;;0.36;67.34;102679.00;5116299;28;20114;-82
2022/03/07 08:43:51;;;;;;;11.70;8.77;;;;;;;0.45;66.31;102670.34;5115784;28;20125;-81
2022/03/07 08:46:17;;;;;;;12.73;8.88;;;;;;;0.53;66.50;102673.34;5082529;28;20480;-81
2022/03/07 08:48:45;;;;;;;11.27;7.95;;;;;;;0.60;65.79;102673.78;5115876;28;20027;-81
2022/03/07 08:51:14;;;;;;;9.55;7.70;;;;;;;0.65;65.98;102674.31;5115861;28;20472;-81
2022/03/07 08:53:42;;;;;;;9.45;7.65;;;;;;;0.70;65.08;102670.38;5115601;28;20070;-81
2022/03/07 08:56:08;;;;;;;10.95;7.93;;;;;;;0.79;65.17;102665.34;5115524;28;20076;-81
2022/03/07 08:58:33;;;;;;;9.45;7.53;;;;;;;0.86;64.39;102667.50;5115570;28;20024;-82
2022/03/07 09:00:59;;;;;;;7.97;6.78;;;;;;;0.93;64.68;102659.91;5081638;28;20047;-82
2022/03/07 09:03:25;;;;;;;8.40;6.70;;;;;;;1.02;64.19;102653.91;5097884;28;20038;-82
2022/03/07 09:05:50;;;;;;;9.55;7.03;;;;;;;1.09;63.65;102658.81;5115740;28;20035;-80
2022/03/07 09:08:16;;;;;;;10.10;7.30;;;;;;;1.22;63.44;102652.47;5098719;28;20042;-81
2022/03/07 09:10:41;;;;;;;9.13;7.00;;;;;;;1.24;62.59;102655.06;5081394;28;20031;-81
2022/03/07 09:13:07;;;;;;;7.70;6.65;;;;;;;1.27;62.70;102652.19;5081404;28;20028;-81
2022/03/07 09:15:32;;;;;;;8.38;6.35;;;;;;;1.33;62.45;102656.19;5098301;28;20088;-81
2022/03/07 09:17:57;;;;;;;7.78;5.97;;;;;;;1.43;62.56;102661.75;5116515;28;20024;-81
2022/03/07 09:20:23;;;;;;;8.05;6.40;;;;;;;1.48;61.73;102648.91;5114821;28;20492;-81
2022/03/07 09:22:49;;;;;;;9.10;6.30;;;;;;;1.57;60.22;102651.75;5116743;27;20043;-81
2022/03/07 09:25:15;;;;;;;7.65;6.50;;;;;;;1.65;59.91;102656.53;5080760;28;20074;-81
2022/03/07 09:27:42;;;;;;;9.43;6.82;;;;;;;1.75;59.27;102652.22;5114776;28;20023;-81
2022/03/07 09:30:09;;;;;;;7.85;6.50;;;;;;;1.86;58.81;102640.75;5097737;28;20096;-81
2022/03/07 09:32:35;;;;;;;9.68;6.40;;;;;;;1.93;57.76;102646.47;5116206;28;20039;-81
2022/03/07 09:35:00;;;;;;;7.90;6.18;;;;;;;2.00;57.32;102642.38;5115083;28;20027;-82
2022/03/07 09:37:26;;;;;;;8.43;6.20;;;;;;;2.07;57.10;102643.63;5097846;28;20039;-81
2022/03/07 09:39:51;;;;;;;7.85;5.53;;;;;;;2.12;56.75;102642.44;5115005;28;20118;-81
2022/03/07 09:42:17;;;;;;;7.30;5.45;;;;;;;2.18;56.58;102645.50;5115036;28;20070;-81
2022/03/07 09:44:43;;;;;;;8.73;5.72;;;;;;;2.23;56.58;102643.34;5114587;28;20028;-81
2022/03/07 09:47:08;;;;;;;5.80;5.18;;;;;;;2.31;56.42;102633.88;5097514;28;20070;-81
2022/03/07 09:49:34;;;;;;;7.70;5.50;;;;;;;2.40;56.48;102635.81;5097539;28;20078;-81
2022/03/07 09:52:00;;;;;;;6.43;5.20;;;;;;;2.47;55.92;102631.72;5097777;28;20035;-81
2022/03/07 09:54:26;;;;;;;6.65;5.30;;;;;;;2.55;55.63;102631.94;5114652;28;20105;-81
2022/03/07 09:56:53;;;;;;;6.95;5.00;;;;;;;2.64;56.19;102635.75;5097348;28;20063;-82
2022/03/07 09:59:20;;;;;;;6.88;5.15;;;;;;;2.76;55.06;102626.75;5114389;28;20040;-81
2022/03/07 10:01:59;;;;;;;6.10;4.78;;;;;;;2.80;54.43;102630.03;5114279;28;20032;-81
2022/03/07 10:04:25;;;;;;;7.20;4.93;;;;;;;2.89;54.68;102618.59;5114176;28;20027;-82
2022/03/07 10:06:51;;;;;;;5.78;4.43;;;;;;;3.00;53.94;102615.06;5097658;28;20038;-81
2022/03/07 10:09:22;;;;;;;6.50;4.60;;;;;;;3.10;53.61;102609.81;5080139;28;20032;-81
2022/03/07 10:12:03;;;;;;;5.72;4.05;;;;;;;3.20;53.66;102616.16;5114673;28;20039;-81
2022/03/07 10:14:46;;;;;;;5.30;4.35;;;;;;;3.34;52.81;102605.16;5113614;28;20089;-81
2022/03/07 10:17:21;;;;;;;5.72;4.82;;;;;;;3.41;51.50;102602.84;5115597;28;20035;-82
2022/03/07 10:19:47;;;;;;;6.82;4.40;;;;;;;3.48;51.84;102593.31;5113838;28;20034;-82
2022/03/07 10:22:19;;;;;;;7.45;4.38;;;;;;;3.56;51.34;102592.69;5096675;28;20031;-81
2022/03/07 10:24:45;;;;;;;7.60;4.97;;;;;;;3.63;50.54;102599.25;5112166;28;20126;-81
2022/03/07 10:27:24;;;;;;;5.03;3.78;;;;;;;3.76;51.61;102600.91;5113623;28;20051;-81
2022/03/07 10:29:50;;;;;;;5.28;3.80;;;;;;;3.88;50.17;102599.88;5115264;28;20020;-81
2022/03/07 10:32:19;;;;;;;4.00;3.60;;;;;;;4.01;50.37;102600.53;5096895;28;20061;-81
2022/03/07 10:34:45;;;;;;;6.07;4.10;;;;;;;4.10;50.18;102590.88;5115497;28;20027;-81
2022/03/07 10:37:12;;;;;;;6.00;4.15;;;;;;;4.18;49.08;102590.25;5113450;28;20031;-81
2022/03/07 10:39:47;;;;;;;6.72;3.78;;;;;;;4.28;49.70;102592.97;5080152;28;20031;-81
2022/03/07 10:42:17;;;;;;;5.07;4.03;;;;;;;4.41;49.46;102582.03;5113219;28;20456;-81
2022/03/07 10:44:43;;;;;;;4.15;3.70;;;;;;;4.53;49.04;102583.66;5113521;28;20032;-81
2022/03/07 10:47:19;;;;;;;5.53;4.05;;;;;;;4.65;48.81;102577.22;5114427;28;20028;-81
2022/03/07 10:49:52;;;;;;;5.00;4.10;;;;;;;4.77;48.12;102566.34;5113441;28;20468;-81
2022/03/07 10:52:19;;;;;;;5.20;3.97;;;;;;;4.84;48.06;102565.72;5113269;28;20051;-81
2022/03/07 10:54:46;;;;;;;5.07;3.60;;;;;;;4.90;47.92;102557.09;5113304;28;20032;-81
2022/03/07 10:57:15;;;;;;;5.15;3.80;;;;;;;5.06;48.45;102559.28;5096300;28;20476;-81
2022/03/07 10:59:41;;;;;;;4.78;4.00;;;;;;;5.26;47.73;102541.31;5113009;28;20506;-81
2022/03/07 11:02:11;;;;;;;6.07;4.00;;;;;;;5.40;46.93;102539.22;5078923;28;20035;-81
2022/03/07 11:04:38;;;;;;;5.05;3.80;;;;;;;5.52;46.43;102535.41;5113805;28;20073;-82
2022/03/07 11:07:06;;;;;;;5.30;3.83;;;;;;;5.62;45.68;102540.78;5113051;28;20114;-81
2022/03/07 11:09:32;;;;;;;5.03;3.50;;;;;;;5.80;46.13;102533.72;5112811;28;20027;-81
2022/03/07 11:11:57;;;;;;;5.75;4.18;;;;;;;6.03;45.69;102536.13;5112545;28;20023;-81
2022/03/07 11:14:26;;;;;;;4.88;3.90;;;;;;;6.22;45.23;102543.31;5114976;28;20413;-81
2022/03/07 11:16:56;;;;;;;5.45;3.97;;;;;;;6.49;44.68;102529.03;5112880;28;20023;-81
2022/03/07 11:19:23;;;;;;;7.60;4.70;;;;;;;6.79;44.26;102521.72;5113313;28;20032;-81
2022/03/07 11:21:51;;;;;;;5.40;4.20;;;;;;;7.17;44.05;102522.47;5095982;28;20427;-81
2022/03/07 11:24:19;;;;;;;5.05;4.10;;;;;;;8.84;41.27;102518.19;5112555;28;20059;-82